createdAt,value
2022-11-16T00:01:43.549Z,19.30
2022-11-16T00:04:12.004Z,18.77
2022-11-16T00:06:38.851Z,18.65
2022-11-16T00:09:23.748Z,19.48
2022-11-16T00:11:52.851Z,19.33
2022-11-16T00:14:21.485Z,20.13
2022-11-16T00:16:48.336Z,20.80
2022-11-16T00:19:14.831Z,21.42
2022-11-16T00:21:41.719Z,20.77
2022-11-16T00:24:12.127Z,21.27
2022-11-16T00:26:38.808Z,21.42
2022-11-16T00:29:05.338Z,21.48
2022-11-16T00:31:31.905Z,22.23
2022-11-16T00:33:58.432Z,21.65
2022-11-16T00:36:24.993Z,22.08
2022-11-16T00:38:53.958Z,21.83
2022-11-16T00:41:20.849Z,22.42
2022-11-16T00:43:47.325Z,22.42
2022-11-16T00:46:14.184Z,22.92
2022-11-16T00:48:40.691Z,22.23
2022-11-16T00:51:07.236Z,23.35
2022-11-16T00:53:33.819Z,23.55
2022-11-16T00:56:00.440Z,23.02
2022-11-16T00:58:29.355Z,24.27
2022-11-16T01:01:07.149Z,24.17
2022-11-16T01:03:35.071Z,23.95
2022-11-16T01:06:10.789Z,23.92
2022-11-16T01:08:38.832Z,23.50
2022-11-16T01:11:25.084Z,24.48
2022-11-16T01:13:51.944Z,24.83
2022-11-16T01:16:20.643Z,24.17
2022-11-16T01:18:51.983Z,25.52
2022-11-16T01:21:18.721Z,25.27
2022-11-16T01:23:45.774Z,26.48
2022-11-16T01:26:12.857Z,25.08
2022-11-16T01:28:41.844Z,25.80
2022-11-16T01:31:10.692Z,26.45
2022-11-16T01:33:38.336Z,24.45
2022-11-16T01:36:14.914Z,26.05
2022-11-16T01:38:43.908Z,25.98
2022-11-16T01:41:15.977Z,26.35
2022-11-16T01:43:56.069Z,24.73
2022-11-16T01:46:27.200Z,25.48
2022-11-16T01:49:17.660Z,25.10
2022-11-16T01:52:07.261Z,24.45
2022-11-16T01:54:40.325Z,24.00
2022-11-16T01:57:11.188Z,24.25
2022-11-16T01:59:52.348Z,24.88
2022-11-16T02:02:21.234Z,24.85
2022-11-16T02:04:48.974Z,25.52
2022-11-16T02:07:30.317Z,24.55
2022-11-16T02:10:33.632Z,23.80
2022-11-16T02:13:19.654Z,25.08
2022-11-16T02:15:53.691Z,24.08
2022-11-16T02:18:44.507Z,24.38
2022-11-16T02:21:48.275Z,24.90
2022-11-16T02:24:39.284Z,25.92
2022-11-16T02:27:43.491Z,24.02
2022-11-16T02:30:10.340Z,25.27
2022-11-16T02:32:47.766Z,25.65
2022-11-16T02:35:17.326Z,24.75
2022-11-16T02:38:07.127Z,25.52
2022-11-16T02:40:36.859Z,23.58
2022-11-16T02:43:14.074Z,24.40
2022-11-16T02:45:46.428Z,24.00
2022-11-16T02:48:22.591Z,24.75
2022-11-16T02:50:52.827Z,25.23
2022-11-16T02:53:24.726Z,23.98
2022-11-16T02:55:52.740Z,23.52
2022-11-16T02:58:25.474Z,24.02
2022-11-16T03:01:05.257Z,23.48
2022-11-16T03:03:38.216Z,23.85
2022-11-16T03:06:13.706Z,24.60
2022-11-16T03:08:59.780Z,23.73
2022-11-16T03:11:49.303Z,24.45
2022-11-16T03:14:20.315Z,23.60
2022-11-16T03:16:52.592Z,23.33
2022-11-16T03:19:40.000Z,23.58
2022-11-16T03:22:18.320Z,23.10
2022-11-16T03:24:45.536Z,23.33
2022-11-16T03:27:29.847Z,23.35
2022-11-16T03:30:04.537Z,23.42
2022-11-16T03:32:38.346Z,23.52
2022-11-16T03:35:21.463Z,23.92
2022-11-16T03:37:53.812Z,24.08
2022-11-16T03:40:24.068Z,23.97
2022-11-16T03:42:52.074Z,24.70
2022-11-16T03:45:20.289Z,23.95
2022-11-16T03:47:48.546Z,24.17
2022-11-16T03:50:15.678Z,23.40
2022-11-16T03:52:42.914Z,23.30
2022-11-16T03:55:09.706Z,24.60
2022-11-16T03:57:36.543Z,24.23
2022-11-16T04:00:05.352Z,23.75
2022-11-16T04:02:39.831Z,24.13
2022-11-16T04:05:27.686Z,23.98
2022-11-16T04:08:12.922Z,23.10
2022-11-16T04:10:58.022Z,23.52
2022-11-16T04:13:48.658Z,23.67
2022-11-16T04:16:34.474Z,23.58
2022-11-16T04:19:20.339Z,23.63
2022-11-16T04:22:12.515Z,22.85
2022-11-16T04:24:41.636Z,22.30
2022-11-16T04:27:29.642Z,22.13
2022-11-16T04:29:58.531Z,23.02
2022-11-16T04:32:44.994Z,22.55
2022-11-16T04:35:47.990Z,23.25
2022-11-16T04:38:15.097Z,23.42
2022-11-16T04:40:41.651Z,23.17
2022-11-16T04:43:11.368Z,23.48
2022-11-16T04:45:59.525Z,24.42
2022-11-16T04:48:33.934Z,22.92
2022-11-16T04:51:03.341Z,23.23
2022-11-16T04:53:30.186Z,24.25
2022-11-16T04:56:21.231Z,22.50
2022-11-16T04:58:47.845Z,23.10
2022-11-16T05:01:15.359Z,22.75
2022-11-16T05:03:42.731Z,22.25
2022-11-16T05:06:09.239Z,23.67
2022-11-16T05:08:36.338Z,23.02
2022-11-16T05:11:04.515Z,22.98
2022-11-16T05:13:32.129Z,23.65
2022-11-16T05:15:58.697Z,22.15
2022-11-16T05:18:26.029Z,21.52
2022-11-16T05:21:01.582Z,22.33
2022-11-16T05:23:54.652Z,22.05
2022-11-16T05:26:23.342Z,22.58
2022-11-16T05:28:51.073Z,22.52
2022-11-16T05:31:17.818Z,21.85
2022-11-16T05:33:44.460Z,22.50
2022-11-16T05:36:12.308Z,22.38
2022-11-16T05:38:39.092Z,21.83
2022-11-16T05:41:05.838Z,22.27
2022-11-16T05:43:35.150Z,22.23
2022-11-16T05:46:16.678Z,22.45
2022-11-16T05:48:43.406Z,23.05
2022-11-16T05:51:09.961Z,22.20
2022-11-16T05:53:36.551Z,23.25
2022-11-16T05:56:04.556Z,22.70
2022-11-16T05:58:34.761Z,22.58
2022-11-16T06:01:02.430Z,23.00
2022-11-16T06:03:30.317Z,22.55
2022-11-16T06:05:57.989Z,23.30
2022-11-16T06:08:26.867Z,22.85
2022-11-16T06:10:56.569Z,23.77
2022-11-16T06:13:23.119Z,22.83
2022-11-16T06:15:54.799Z,23.27
2022-11-16T06:18:22.154Z,23.60
2022-11-16T06:20:49.704Z,22.85
2022-11-16T06:23:18.138Z,22.58
2022-11-16T06:25:45.656Z,22.58
2022-11-16T06:28:12.348Z,21.92
2022-11-16T06:30:40.565Z,22.40
2022-11-16T06:33:08.166Z,21.70
2022-11-16T06:35:34.767Z,22.80
2022-11-16T06:38:02.307Z,21.45
2022-11-16T06:40:29.008Z,22.10
2022-11-16T06:42:57.227Z,22.85
2022-11-16T06:45:24.348Z,20.73
2022-11-16T06:47:54.480Z,22.50
2022-11-16T06:50:21.625Z,22.45
2022-11-16T06:52:49.894Z,20.85
2022-11-16T06:55:17.843Z,21.27
2022-11-16T06:57:46.258Z,22.15
2022-11-16T07:00:13.755Z,23.08
2022-11-16T07:02:40.572Z,22.90
2022-11-16T07:05:10.753Z,21.80
2022-11-16T07:07:38.703Z,22.38
2022-11-16T07:10:06.108Z,22.52
2022-11-16T07:12:32.669Z,21.65
2022-11-16T07:15:01.154Z,22.60
2022-11-16T07:17:30.143Z,22.63
2022-11-16T07:19:57.657Z,22.02
2022-11-16T07:22:24.231Z,23.02
2022-11-16T07:24:51.626Z,23.38
2022-11-16T07:27:20.159Z,22.38
2022-11-16T07:29:49.878Z,22.88
2022-11-16T07:32:43.083Z,21.75
2022-11-16T07:35:19.034Z,23.05
2022-11-16T07:37:45.649Z,22.48
2022-11-16T07:40:14.114Z,22.58
2022-11-16T07:42:43.559Z,22.13
2022-11-16T07:45:13.158Z,22.67
2022-11-16T07:47:52.186Z,22.23
2022-11-16T07:50:27.580Z,22.13
2022-11-16T07:52:56.697Z,22.58
2022-11-16T07:55:25.646Z,20.80
2022-11-16T07:57:53.643Z,21.88
2022-11-16T08:00:21.428Z,21.85
2022-11-16T08:02:57.179Z,22.60
2022-11-16T08:05:25.046Z,21.55
2022-11-16T08:07:51.733Z,23.60
2022-11-16T08:10:23.260Z,22.05
2022-11-16T08:12:49.973Z,22.48
2022-11-16T08:15:20.004Z,22.80
2022-11-16T08:17:46.606Z,22.55
2022-11-16T08:20:13.507Z,22.50
2022-11-16T08:22:40.872Z,23.77
2022-11-16T08:25:09.496Z,21.85
2022-11-16T08:27:37.770Z,23.30
2022-11-16T08:30:09.814Z,22.48
2022-11-16T08:32:37.905Z,22.70
2022-11-16T08:35:05.144Z,22.17
2022-11-16T08:37:34.659Z,23.52
2022-11-16T08:40:03.502Z,23.55
2022-11-16T08:42:32.723Z,22.83
2022-11-16T08:44:59.521Z,25.05
2022-11-16T08:47:26.155Z,23.25
2022-11-16T08:49:55.461Z,23.08
2022-11-16T08:52:24.377Z,24.38
2022-11-16T08:54:52.529Z,23.23
2022-11-16T08:57:19.071Z,24.10
2022-11-16T08:59:48.880Z,24.38
2022-11-16T09:02:15.395Z,24.73
2022-11-16T09:04:42.324Z,24.33
2022-11-16T09:07:09.962Z,24.27
2022-11-16T09:09:36.475Z,23.90
2022-11-16T09:12:03.026Z,25.75
2022-11-16T09:14:30.583Z,24.35
2022-11-16T09:16:57.655Z,25.17
2022-11-16T09:19:24.118Z,24.85
2022-11-16T09:21:50.709Z,23.25
2022-11-16T09:24:17.223Z,25.63
2022-11-16T09:26:43.729Z,26.67
2022-11-16T09:29:15.029Z,27.17
2022-11-16T09:31:41.928Z,25.05
2022-11-16T09:34:08.684Z,24.92
2022-11-16T09:36:35.244Z,25.70
2022-11-16T09:39:19.422Z,25.58
2022-11-16T09:42:20.875Z,25.88
2022-11-16T09:45:06.240Z,25.52
2022-11-16T09:47:45.572Z,25.55
2022-11-16T09:50:49.763Z,26.38
2022-11-16T09:53:27.206Z,25.53
2022-11-16T09:55:57.717Z,25.35
2022-11-16T09:58:31.633Z,25.25
2022-11-16T10:04:22.776Z,26.75
2022-11-16T10:06:52.571Z,25.42
2022-11-16T10:09:19.841Z,27.60
2022-11-16T10:11:56.401Z,26.73
2022-11-16T10:14:38.354Z,29.02
2022-11-16T10:17:04.769Z,27.67
2022-11-16T10:19:37.013Z,27.40
2022-11-16T10:22:09.647Z,30.05
2022-11-16T10:24:57.616Z,27.73
2022-11-16T10:27:38.187Z,28.80
2022-11-16T10:30:14.689Z,26.63
2022-11-16T10:32:47.746Z,29.17
2022-11-16T10:35:25.272Z,27.80
2022-11-16T10:37:52.338Z,27.88
2022-11-16T10:40:26.085Z,28.88
2022-11-16T10:43:16.525Z,29.00
2022-11-16T10:46:12.609Z,28.02
2022-11-16T10:48:43.042Z,27.17
2022-11-16T10:51:10.647Z,30.33
2022-11-16T10:53:43.805Z,29.85
2022-11-16T10:56:28.622Z,29.30
2022-11-16T10:59:02.847Z,28.60
2022-11-16T11:04:28.488Z,30.08
2022-11-16T11:07:30.184Z,27.92
2022-11-16T11:09:56.713Z,29.38
2022-11-16T11:12:40.072Z,27.35
2022-11-16T11:15:33.194Z,27.70
2022-11-16T11:18:16.150Z,30.10
2022-11-16T11:20:46.781Z,29.88
2022-11-16T11:26:05.128Z,31.15
2022-11-16T11:28:38.384Z,30.60
2022-11-16T11:31:25.810Z,30.08
2022-11-16T11:33:56.383Z,30.17
2022-11-16T11:36:38.746Z,31.30
2022-11-16T11:39:08.016Z,30.63
2022-11-16T11:41:38.895Z,32.92
2022-11-16T11:44:15.484Z,36.38
2022-11-16T11:47:42.366Z,36.33
2022-11-16T11:49:49.962Z,36.80
2022-11-16T11:52:26.260Z,33.83
2022-11-16T11:54:55.765Z,33.25
2022-11-16T11:57:23.203Z,32.80
2022-11-16T11:59:52.537Z,32.20
2022-11-16T12:02:28.713Z,33.25
2022-11-16T12:05:01.892Z,31.73
2022-11-16T12:07:48.750Z,33.67
2022-11-16T12:10:47.775Z,31.35
2022-11-16T12:13:38.041Z,29.67
2022-11-16T12:16:07.699Z,30.35
2022-11-16T12:18:58.495Z,28.98
2022-11-16T12:21:38.671Z,27.23
2022-11-16T12:24:24.455Z,28.35
2022-11-16T12:27:27.056Z,26.65
2022-11-16T12:30:18.869Z,27.27
2022-11-16T12:32:51.901Z,26.95
2022-11-16T12:35:24.535Z,27.25
2022-11-16T12:38:27.893Z,26.95
2022-11-16T12:41:19.053Z,26.63
2022-11-16T12:44:00.913Z,28.02
2022-11-16T12:46:58.220Z,27.63
2022-11-16T12:49:24.701Z,28.30
2022-11-16T12:52:06.027Z,27.42
2022-11-16T12:54:48.051Z,27.30
2022-11-16T12:57:30.716Z,26.98
2022-11-16T13:00:09.153Z,27.58
2022-11-16T13:02:54.935Z,28.38
2022-11-16T13:05:40.323Z,27.13
2022-11-16T13:08:41.730Z,27.45
2022-11-16T13:11:20.763Z,29.10
2022-11-16T13:13:53.839Z,28.50
2022-11-16T13:16:22.510Z,30.17
2022-11-16T13:18:50.200Z,30.17
2022-11-16T13:21:19.670Z,30.42
2022-11-16T13:24:23.304Z,28.65
2022-11-16T13:27:16.627Z,30.00
2022-11-16T13:29:51.792Z,31.30
2022-11-16T13:32:36.059Z,30.08
2022-11-16T13:35:11.597Z,32.03
2022-11-16T13:37:38.138Z,30.35
2022-11-16T13:40:04.910Z,31.45
2022-11-16T13:42:34.196Z,32.20
2022-11-16T13:45:19.727Z,31.25
2022-11-16T13:47:58.067Z,32.22
2022-11-16T13:50:36.108Z,29.65
2022-11-16T13:55:59.589Z,25.77
2022-11-16T13:58:28.400Z,25.30
2022-11-16T14:01:02.551Z,25.92
2022-11-16T14:05:58.566Z,22.75
2022-11-16T14:08:25.028Z,21.55
2022-11-16T14:10:51.423Z,23.13
2022-11-16T14:13:36.400Z,22.05
2022-11-16T14:16:15.616Z,19.52
2022-11-16T14:18:42.820Z,20.25
2022-11-16T14:21:16.349Z,19.65
2022-11-16T14:23:48.948Z,21.27
2022-11-16T14:26:45.779Z,20.55
2022-11-16T14:29:32.364Z,20.85
2022-11-16T14:32:02.667Z,20.70
2022-11-16T14:34:58.809Z,19.38
2022-11-16T14:37:25.372Z,20.10
2022-11-16T14:40:01.761Z,20.52
2022-11-16T14:42:38.265Z,20.55
2022-11-16T14:45:27.132Z,19.13
2022-11-16T14:48:01.028Z,19.75
2022-11-16T14:50:27.565Z,20.77
2022-11-16T14:52:59.551Z,22.38
2022-11-16T14:55:27.134Z,22.45
2022-11-16T14:58:20.151Z,21.60
2022-11-16T15:00:57.947Z,20.52
2022-11-16T15:03:28.247Z,21.20
2022-11-16T15:06:00.423Z,23.35
2022-11-16T15:08:51.473Z,22.60
2022-11-16T15:11:48.122Z,22.50
2022-11-16T15:14:19.064Z,22.08
2022-11-16T15:16:54.396Z,23.02
2022-11-16T15:19:21.980Z,22.25
2022-11-16T15:21:52.413Z,22.33
2022-11-16T15:24:30.621Z,22.45
2022-11-16T15:27:09.504Z,21.92
2022-11-16T15:29:36.352Z,21.73
2022-11-16T15:32:03.300Z,22.20
2022-11-16T15:34:31.107Z,22.90
2022-11-16T15:36:57.667Z,23.27
2022-11-16T15:39:33.378Z,23.25
2022-11-16T15:42:03.681Z,23.05
2022-11-16T15:44:31.878Z,23.52
2022-11-16T15:46:59.336Z,25.75
2022-11-16T15:49:32.360Z,23.33
2022-11-16T15:52:00.068Z,24.98
2022-11-16T15:54:29.772Z,26.33
2022-11-16T15:57:05.576Z,25.70
2022-11-16T15:59:35.658Z,27.58
2022-11-16T16:02:03.296Z,26.55
2022-11-16T16:04:30.635Z,25.45
2022-11-16T16:07:00.723Z,24.88
2022-11-16T16:09:28.840Z,25.50
2022-11-16T16:12:21.463Z,26.40
2022-11-16T16:14:49.786Z,24.33
2022-11-16T16:17:28.810Z,23.13
2022-11-16T16:20:00.842Z,23.95
2022-11-16T16:22:32.045Z,24.75
2022-11-16T16:24:58.704Z,24.45
2022-11-16T16:27:27.469Z,24.33
2022-11-16T16:29:57.158Z,24.77
2022-11-16T16:32:32.123Z,24.75
2022-11-16T16:35:04.481Z,21.55
2022-11-16T16:37:33.402Z,22.08
2022-11-16T16:40:00.375Z,22.55
2022-11-16T16:42:27.423Z,22.70
2022-11-16T16:44:53.993Z,20.50
2022-11-16T16:47:20.984Z,21.50
2022-11-16T16:49:50.443Z,19.48
2022-11-16T16:52:17.698Z,21.35
2022-11-16T16:54:44.350Z,19.92
2022-11-16T16:57:17.907Z,19.55
2022-11-16T16:59:45.375Z,20.42
2022-11-16T17:02:12.873Z,19.58
2022-11-16T17:04:39.648Z,18.85
2022-11-16T17:07:06.529Z,19.25
2022-11-16T17:09:33.191Z,19.33
2022-11-16T17:11:59.705Z,18.90
2022-11-16T17:14:26.281Z,20.10
2022-11-16T17:16:52.849Z,19.40
2022-11-16T17:19:19.763Z,17.90
2022-11-16T17:21:46.637Z,19.30
2022-11-16T17:24:13.127Z,18.88
2022-11-16T17:26:41.053Z,17.33
2022-11-16T17:29:07.926Z,17.48
2022-11-16T17:31:34.585Z,16.85
2022-11-16T17:34:01.220Z,16.48
2022-11-16T17:36:27.691Z,16.45
2022-11-16T17:38:54.228Z,16.48
2022-11-16T17:41:22.210Z,16.08
2022-11-16T17:43:52.955Z,15.65
2022-11-16T17:46:23.428Z,14.48
2022-11-16T17:48:50.753Z,14.63
2022-11-16T17:51:22.675Z,14.82
2022-11-16T17:53:52.204Z,13.77
2022-11-16T17:56:21.788Z,12.70
2022-11-16T17:58:50.273Z,13.52
2022-11-16T18:01:16.928Z,12.60
2022-11-16T18:03:43.566Z,13.10
2022-11-16T18:06:13.448Z,12.70
2022-11-16T18:08:41.072Z,12.30
2022-11-16T18:11:10.682Z,11.60
2022-11-16T18:13:39.226Z,11.85
2022-11-16T18:16:15.464Z,11.05
2022-11-16T18:18:44.850Z,11.40
2022-11-16T18:21:18.774Z,10.07
2022-11-16T18:23:46.780Z,9.68
2022-11-16T18:26:15.480Z,9.60
2022-11-16T18:28:44.940Z,8.95
2022-11-16T18:31:13.916Z,9.13
2022-11-16T18:33:40.550Z,9.68
2022-11-16T18:36:08.995Z,9.63
2022-11-16T18:38:36.416Z,8.57
2022-11-16T18:41:11.808Z,8.95
2022-11-16T18:43:39.661Z,8.20
2022-11-16T18:46:06.812Z,9.52
2022-11-16T18:48:33.699Z,8.30
2022-11-16T18:51:01.696Z,8.82
2022-11-16T18:53:29.733Z,8.63
2022-11-16T18:55:58.107Z,7.63
2022-11-16T18:58:49.426Z,8.23
2022-11-16T19:01:14.756Z,7.68
2022-11-16T19:03:41.695Z,8.65
2022-11-16T19:06:09.832Z,7.53
2022-11-16T19:08:41.328Z,7.82
2022-11-16T19:11:16.786Z,6.97
2022-11-16T19:13:44.700Z,7.28
2022-11-16T19:16:13.208Z,8.13
2022-11-16T19:18:40.134Z,10.93
2022-11-16T19:21:09.280Z,11.73
2022-11-16T19:23:38.844Z,10.43
2022-11-16T19:26:06.777Z,9.82
2022-11-16T19:28:37.485Z,8.90
2022-11-16T19:31:15.037Z,8.50
2022-11-16T19:33:41.570Z,7.93
2022-11-16T19:36:16.480Z,7.93
2022-11-16T19:38:44.181Z,7.78
2022-11-16T19:41:11.910Z,7.28
2022-11-16T19:43:38.984Z,7.55
2022-11-16T19:46:17.602Z,7.75
2022-11-16T19:48:45.896Z,6.45
2022-11-16T19:51:16.032Z,7.55
2022-11-16T19:53:42.760Z,7.30
2022-11-16T19:56:14.577Z,7.22
2022-11-16T19:58:42.021Z,7.18
2022-11-16T20:01:08.560Z,6.28
2022-11-16T20:03:38.286Z,6.80
2022-11-16T20:06:19.732Z,7.22
2022-11-16T20:08:51.614Z,7.80
2022-11-16T20:11:21.604Z,7.80
2022-11-16T20:13:49.109Z,7.57
2022-11-16T20:16:17.047Z,7.72
2022-11-16T20:18:45.589Z,8.57
2022-11-16T20:21:33.233Z,8.77
2022-11-16T20:24:06.096Z,8.88
2022-11-16T20:26:34.548Z,9.18
2022-11-16T20:29:01.493Z,8.52
2022-11-16T20:31:30.835Z,8.82
2022-11-16T20:33:59.585Z,9.20
2022-11-16T20:36:28.038Z,9.52
2022-11-16T20:38:55.799Z,8.98
2022-11-16T20:41:25.272Z,9.52
2022-11-16T20:43:54.586Z,9.75
2022-11-16T20:46:23.525Z,9.57
2022-11-16T20:48:51.085Z,9.73
2022-11-16T20:51:19.723Z,9.25
2022-11-16T20:53:47.933Z,8.82
2022-11-16T20:56:15.378Z,9.50
2022-11-16T20:58:42.029Z,9.10
2022-11-16T21:01:12.536Z,8.90
2022-11-16T21:03:39.898Z,9.50
2022-11-16T21:06:09.805Z,9.27
2022-11-16T21:08:37.696Z,9.60
2022-11-16T21:11:30.502Z,8.52
2022-11-16T21:14:18.102Z,8.75
2022-11-16T21:16:45.077Z,8.70
2022-11-16T21:19:12.421Z,9.65
2022-11-16T21:21:40.716Z,9.18
2022-11-16T21:24:08.970Z,8.95
2022-11-16T21:26:37.223Z,9.52
2022-11-16T21:29:04.203Z,8.95
2022-11-16T21:31:33.012Z,9.10
2022-11-16T21:34:02.848Z,9.32
2022-11-16T21:36:31.117Z,9.00
2022-11-16T21:38:58.150Z,9.10
2022-11-16T21:41:25.921Z,8.70
2022-11-16T21:43:54.531Z,9.00
2022-11-16T21:46:25.199Z,8.75
2022-11-16T21:48:53.673Z,9.02
2022-11-16T21:51:22.350Z,8.32
2022-11-16T21:53:48.940Z,9.10
2022-11-16T21:56:18.336Z,9.55
2022-11-16T21:58:45.541Z,8.40
2022-11-16T22:01:13.446Z,8.15
2022-11-16T22:03:40.200Z,8.38
2022-11-16T22:06:30.412Z,8.57
2022-11-16T22:08:57.039Z,9.10
2022-11-16T22:11:27.049Z,8.07
2022-11-16T22:13:53.687Z,7.82
2022-11-16T22:16:23.012Z,7.68
2022-11-16T22:18:50.052Z,9.20
2022-11-16T22:21:16.592Z,8.10
2022-11-16T22:23:43.113Z,8.75
2022-11-16T22:26:12.353Z,8.18
2022-11-16T22:28:39.406Z,8.10
2022-11-16T22:31:13.926Z,7.68
2022-11-16T22:33:41.174Z,8.10
2022-11-16T22:36:10.558Z,7.93
2022-11-16T22:38:40.178Z,7.68
2022-11-16T22:41:06.796Z,7.53
2022-11-16T22:43:33.830Z,7.55
2022-11-16T22:46:02.920Z,7.53
2022-11-16T22:48:33.572Z,8.40
2022-11-16T22:51:11.591Z,7.63
2022-11-16T22:53:38.419Z,8.15
2022-11-16T22:56:09.641Z,7.38
2022-11-16T22:58:37.706Z,7.43
2022-11-16T23:01:05.508Z,7.38
2022-11-16T23:03:32.227Z,7.55
2022-11-16T23:05:59.663Z,7.10
2022-11-16T23:08:27.164Z,6.65
2022-11-16T23:11:36.371Z,6.20
2022-11-16T23:14:23.888Z,7.25
2022-11-16T23:16:50.809Z,7.28
2022-11-16T23:19:37.837Z,6.93
2022-11-16T23:22:23.495Z,7.35
2022-11-16T23:25:08.723Z,6.82
2022-11-16T23:27:35.188Z,6.82
2022-11-16T23:30:09.341Z,7.13
2022-11-16T23:32:38.862Z,7.45
2022-11-16T23:35:05.841Z,7.35
2022-11-16T23:37:32.339Z,6.95
2022-11-16T23:39:59.228Z,7.20
2022-11-16T23:42:57.891Z,7.15
2022-11-16T23:45:24.375Z,7.18
2022-11-16T23:47:50.914Z,7.38
2022-11-16T23:50:17.679Z,6.47
2022-11-16T23:52:44.245Z,7.60
2022-11-16T23:55:10.837Z,6.88
2022-11-16T23:57:37.331Z,6.50
